Accueil
METAR-TAF:

METAR-TAF

Aéroports :

Gloucester, Angleterre

Aéroport de Gloucestershire

latitude: 51-54N, longitude: 002-10W, altitude: 29 m

Observation

Le bulletin a été fait il y a 22 minutes, à 16:20 UTC
Vent 11 kt de ouest
Température 18°C
Humidité 56%
Pression 1019 hPa
Visibilité 10 km ou plus
Quelques nuages à une hauteur de 4500 ft

METAR: EGBJ 191620Z 28011KT 9999 FEW045 18/09 Q1019

Heure: 17:42 (16:42 UTC)

Prévision

Le bulletin a été fait il y a 2 heures et 40 minutes, à 14:02 UTC
Prévision valable du 19 à 15 UTC au 19 à 19 UTC
Vent 12 kt de ouest/sud-ouest
Visibilité 10 km ou plus
Nuages épars à une hauteur de 3000 ft
Temporairement
du 19 à 15 UTC au 19 à 17 UTC
Vent 15 kt de ouest avec des rafales jusqu'à 25 kt
Probabilité 40% :
Temporairement
du 19 à 15 UTC au 19 à 18 UTC
Visibilité: 7000 m
averses de pluie

TAF: EGBJ 191402Z 1915/1919 25012KT 9999 SCT030 TEMPO 1915/1917 27015G25KT PROB40 TEMPO 1915/1918 7000 SHRA

Observations et prévisions météorologiques de plus de 4000 aéroports (messages METAR et TAF).

Les stations disponibles sont représentées par des disques jaunes et rouges sur la carte.

Passer la souris dessus pour voir le nom de la station.

Cliquer dessus pour voir les observations et prévisions météorologiques.

Pour changer de carte: cliquez sur les boutons verts avec une croix noire pour zoomer, sur le bouton vert avec un tiret pour effectuer un zoom arrière, ou sur les flèches vertes pour les cartes adjacentes.


METAR-TAF: